Time;durP1;ratioP1;P1;durP2;ratioP2;P2;SDS_P1;SDS_P2;PMS_P1;PMS_P2;Temp;Humidity;BMP_temperature;BMP_pressure;BME280_temperature;BME280_humidity;BME280_pressure;Samples;Min_cycle;Max_cycle;Signal;HPM_P1;HPM_P2
2021/06/28 00:00:22;;;;;;;10.65;3.15;;;17.90;78.10;;;;;;6245069;23;20471;-79
2021/06/28 00:02:49;;;;;;;7.00;3.30;;;17.90;78.30;;;;;;6245182;23;20022;-81
2021/06/28 00:05:18;;;;;;;16.05;3.60;;;17.80;78.20;;;;;;6245124;23;20024;-79
2021/06/28 00:07:47;;;;;;;5.65;3.15;;;17.70;78.20;;;;;;6246673;22;20044;-82
2021/06/28 00:10:17;;;;;;;6.90;3.25;;;17.80;78.10;;;;;;6244867;23;20024;-80
2021/06/28 00:12:45;;;;;;;10.82;3.58;;;17.70;78.10;;;;;;6246488;22;20407;-80
2021/06/28 00:15:17;;;;;;;11.50;3.47;;;17.70;78.10;;;;;;6245373;23;20078;-79
2021/06/28 00:17:45;;;;;;;11.60;3.60;;;17.70;78.10;;;;;;6246601;23;20026;-79
2021/06/28 00:20:14;;;;;;;6.22;3.20;;;17.60;78.20;;;;;;6245066;23;20371;-79
2021/06/28 00:22:42;;;;;;;13.10;3.00;;;17.60;78.20;;;;;;6244753;23;20023;-81
2021/06/28 00:25:12;;;;;;;5.95;3.08;;;17.60;78.40;;;;;;6245099;23;20020;-81
2021/06/28 00:27:40;;;;;;;9.15;3.55;;;17.60;78.60;;;;;;6246764;22;20017;-79
2021/06/28 00:30:27;;;;;;;7.78;3.67;;;17.60;78.70;;;;;;6246231;22;20017;-79
2021/06/28 00:32:55;;;;;;;6.53;3.25;;;17.50;78.80;;;;;;6245982;23;20020;-82
2021/06/28 00:35:23;;;;;;;7.10;3.00;;;17.50;78.80;;;;;;6246581;22;20028;-81
2021/06/28 00:37:50;;;;;;;7.35;4.10;;;17.50;78.90;;;;;;6244661;23;20476;-81
2021/06/28 00:40:20;;;;;;;6.55;3.60;;;17.50;78.90;;;;;;6245066;23;20363;-79
2021/06/28 00:42:47;;;;;;;7.53;3.30;;;17.50;78.80;;;;;;6244732;23;20490;-80
2021/06/28 00:45:30;;;;;;;9.27;3.67;;;17.50;78.90;;;;;;6244502;23;20359;-79
2021/06/28 00:48:01;;;;;;;8.27;3.83;;;17.50;78.90;;;;;;6244419;23;20407;-79
2021/06/28 00:50:30;;;;;;;9.75;4.32;;;17.40;79.00;;;;;;6246335;22;20017;-79
2021/06/28 00:53:09;;;;;;;9.02;4.03;;;17.50;79.00;;;;;;6244782;23;20022;-80
2021/06/28 00:55:38;;;;;;;7.00;3.88;;;17.50;79.00;;;;;;6246123;22;20030;-79
2021/06/28 00:58:06;;;;;;;9.07;3.67;;;17.40;79.10;;;;;;6245872;22;20016;-81
2021/06/28 01:00:34;;;;;;;7.22;3.70;;;17.40;79.10;;;;;;6246258;22;20023;-79
2021/06/28 01:03:01;;;;;;;8.55;3.38;;;17.40;79.10;;;;;;6245783;22;20016;-81
2021/06/28 01:05:32;;;;;;;8.02;4.00;;;17.40;79.10;;;;;;6244750;23;20020;-82
2021/06/28 01:08:02;;;;;;;10.30;3.28;;;17.40;79.10;;;;;;6244400;23;20480;-80
2021/06/28 01:10:29;;;;;;;7.05;3.33;;;17.40;79.10;;;;;;6245927;22;20046;-80
2021/06/28 01:12:57;;;;;;;10.18;3.83;;;17.40;79.10;;;;;;6246056;23;20016;-80
2021/06/28 01:15:24;;;;;;;7.38;3.22;;;17.40;79.20;;;;;;6244734;23;20020;-79
2021/06/28 01:17:52;;;;;;;5.60;3.33;;;17.40;79.10;;;;;;6244332;23;20020;-82
2021/06/28 01:20:22;;;;;;;11.57;3.92;;;17.40;79.10;;;;;;6244475;23;20020;-80
2021/06/28 01:22:55;;;;;;;8.55;3.08;;;17.40;79.20;;;;;;6244545;23;20016;-81
2021/06/28 01:25:25;;;;;;;8.43;3.08;;;17.40;79.20;;;;;;6244202;23;20478;-81
2021/06/28 01:27:52;;;;;;;7.93;3.10;;;17.40;79.20;;;;;;6244731;23;20016;-80
2021/06/28 01:30:26;;;;;;;9.75;3.38;;;17.40;79.10;;;;;;6243981;23;20012;-79
2021/06/28 01:32:54;;;;;;;5.72;3.00;;;17.40;79.20;;;;;;6243958;23;20024;-81
2021/06/28 01:35:22;;;;;;;10.25;3.42;;;17.40;79.30;;;;;;6244264;23;20021;-81
2021/06/28 01:37:49;;;;;;;5.55;3.33;;;17.30;79.40;;;;;;6244652;23;20034;-80
2021/06/28 01:40:18;;;;;;;10.20;3.35;;;17.40;79.50;;;;;;6244566;23;20042;-80
2021/06/28 01:42:46;;;;;;;7.60;3.10;;;17.30;79.40;;;;;;6244542;23;20020;-79
2021/06/28 01:45:18;;;;;;;8.88;2.80;;;17.30;79.50;;;;;;6245388;22;20020;-81
2021/06/28 01:47:46;;;;;;;7.72;3.15;;;17.30;79.50;;;;;;6244198;23;20012;-81
2021/06/28 01:50:15;;;;;;;7.30;3.00;;;17.30;79.50;;;;;;6244074;23;20024;-79
2021/06/28 01:52:43;;;;;;;7.53;3.33;;;17.30;79.60;;;;;;6244521;23;20016;-80
2021/06/28 01:55:13;;;;;;;7.93;3.25;;;17.30;79.60;;;;;;6244473;22;20023;-81
2021/06/28 01:57:43;;;;;;;8.15;3.25;;;17.30;79.60;;;;;;6245599;23;20022;-80
2021/06/28 02:00:13;;;;;;;9.82;2.90;;;17.30;79.60;;;;;;6243856;23;20016;-80
2021/06/28 02:02:40;;;;;;;14.25;3.42;;;17.30;79.70;;;;;;6245373;22;20016;-82
2021/06/28 02:05:08;;;;;;;10.88;3.25;;;17.30;79.60;;;;;;6244219;23;20027;-79
2021/06/28 02:07:35;;;;;;;11.55;3.22;;;17.30;79.60;;;;;;6244210;23;20022;-79
2021/06/28 02:10:04;;;;;;;10.68;3.47;;;17.30;79.60;;;;;;6245225;22;20023;-79
2021/06/28 02:12:31;;;;;;;6.45;3.13;;;17.30;79.60;;;;;;6244333;23;20095;-82
2021/06/28 02:14:58;;;;;;;10.23;3.35;;;17.20;79.60;;;;;;6243670;23;20054;-78
2021/06/28 02:17:25;;;;;;;13.32;2.75;;;17.20;79.60;;;;;;6243953;23;20016;-81
2021/06/28 02:19:52;;;;;;;5.68;3.00;;;17.30;79.60;;;;;;6244211;23;20023;-80
2021/06/28 02:22:19;;;;;;;11.80;2.85;;;17.30;79.70;;;;;;6243807;23;20456;-79
2021/06/28 02:24:46;;;;;;;13.32;3.50;;;17.20;79.80;;;;;;6243931;23;20022;-79
2021/06/28 02:27:13;;;;;;;10.15;3.13;;;17.20;79.90;;;;;;6244004;23;20020;-78
2021/06/28 02:29:40;;;;;;;9.88;3.00;;;17.20;79.90;;;;;;6243588;23;20012;-81
2021/06/28 02:32:07;;;;;;;8.68;3.03;;;17.20;80.00;;;;;;6243839;23;20013;-80
2021/06/28 02:34:34;;;;;;;10.35;3.50;;;17.20;80.10;;;;;;6243952;23;20017;-79
2021/06/28 02:37:01;;;;;;;9.35;3.20;;;17.20;80.10;;;;;;6244301;23;20016;-79
2021/06/28 02:39:28;;;;;;;6.30;2.92;;;17.20;80.10;;;;;;6243826;23;20692;-81
2021/06/28 02:41:55;;;;;;;7.65;2.95;;;17.20;80.00;;;;;;6246299;22;20025;-81
2021/06/28 02:44:22;;;;;;;5.93;2.80;;;17.20;80.00;;;;;;6247443;22;20016;-81
2021/06/28 02:46:49;;;;;;;7.53;3.55;;;17.20;79.90;;;;;;6247077;22;20020;-80
2021/06/28 02:49:16;;;;;;;5.53;3.10;;;17.20;79.90;;;;;;6245881;23;20016;-80
2021/06/28 02:51:43;;;;;;;8.35;3.30;;;17.20;80.00;;;;;;6246021;23;20490;-80
2021/06/28 02:54:10;;;;;;;9.05;3.65;;;17.20;80.00;;;;;;6245831;23;20360;-78
2021/06/28 02:56:37;;;;;;;11.90;3.80;;;17.10;80.00;;;;;;6245580;22;20471;-82
2021/06/28 02:59:04;;;;;;;11.40;3.50;;;17.10;80.00;;;;;;6245804;23;20020;-80
2021/06/28 03:01:31;;;;;;;9.77;3.78;;;17.20;80.00;;;;;;6247459;22;20020;-78
2021/06/28 03:03:58;;;;;;;8.18;3.30;;;17.10;80.10;;;;;;6246040;23;20399;-79
2021/06/28 03:06:25;;;;;;;7.90;4.00;;;17.10;80.10;;;;;;6245590;23;20016;-79
2021/06/28 03:08:52;;;;;;;9.15;3.50;;;17.10;80.10;;;;;;6245985;23;20016;-79
2021/06/28 03:11:21;;;;;;;7.10;3.60;;;17.10;80.10;;;;;;6245289;23;20023;-79
2021/06/28 03:13:50;;;;;;;6.60;3.92;;;17.10;80.10;;;;;;6245516;23;20022;-80
2021/06/28 03:16:17;;;;;;;11.48;3.90;;;17.10;80.00;;;;;;6245722;23;20024;-78
2021/06/28 03:18:45;;;;;;;10.27;4.07;;;17.10;80.00;;;;;;6245538;23;20020;-80
2021/06/28 03:21:12;;;;;;;7.88;3.50;;;17.10;80.00;;;;;;6246908;22;20498;-79
2021/06/28 03:23:41;;;;;;;8.77;3.58;;;17.10;80.00;;;;;;6245868;23;20022;-80
2021/06/28 03:26:09;;;;;;;6.53;3.40;;;17.10;80.00;;;;;;6245256;23;20020;-79
2021/06/28 03:28:36;;;;;;;8.60;3.70;;;17.10;80.10;;;;;;6245610;23;20023;-80
2021/06/28 03:31:04;;;;;;;10.07;3.53;;;17.00;80.10;;;;;;6247357;23;20020;-80
2021/06/28 03:33:33;;;;;;;13.95;4.65;;;17.00;80.10;;;;;;6246673;22;20399;-79
2021/06/28 03:36:00;;;;;;;11.55;4.03;;;17.00;80.10;;;;;;6245130;23;20472;-80
2021/06/28 03:38:27;;;;;;;9.40;4.40;;;17.00;80.10;;;;;;6245444;23;20020;-79
2021/06/28 03:40:54;;;;;;;15.90;5.28;;;17.00;80.10;;;;;;6246674;22;20022;-79
2021/06/28 03:43:21;;;;;;;12.77;5.05;;;17.00;80.20;;;;;;6245332;23;20027;-79
2021/06/28 03:45:49;;;;;;;10.25;5.28;;;17.00;80.20;;;;;;6245041;23;20468;-78
2021/06/28 03:48:16;;;;;;;10.77;5.43;;;17.00;80.30;;;;;;6246876;22;20012;-80
2021/06/28 03:50:44;;;;;;;10.65;4.65;;;17.00;80.40;;;;;;6246441;23;20024;-81
2021/06/28 03:53:11;;;;;;;13.55;4.90;;;17.00;80.40;;;;;;6246189;22;20013;-79
2021/06/28 03:55:38;;;;;;;8.10;4.30;;;16.90;80.50;;;;;;6247186;22;20016;-79
2021/06/28 03:58:06;;;;;;;12.77;4.90;;;16.90;80.50;;;;;;6244906;23;20020;-80
2021/06/28 04:00:33;;;;;;;10.90;4.78;;;16.90;80.60;;;;;;6245035;23;20023;-78
2021/06/28 04:03:01;;;;;;;9.82;4.25;;;16.90;80.60;;;;;;6245755;23;20027;-79
2021/06/28 04:05:29;;;;;;;12.27;4.70;;;16.90;80.70;;;;;;6245451;23;20016;-79
2021/06/28 04:07:56;;;;;;;7.63;4.55;;;16.90;80.70;;;;;;6245501;23;20070;-81
2021/06/28 04:10:24;;;;;;;7.32;4.47;;;16.90;80.70;;;;;;6246374;22;20024;-80
2021/06/28 04:12:53;;;;;;;10.65;4.50;;;16.90;80.70;;;;;;6244775;23;20360;-81
2021/06/28 04:15:22;;;;;;;6.40;3.85;;;16.90;80.70;;;;;;6246774;22;20020;-81
2021/06/28 04:17:53;;;;;;;10.98;3.95;;;17.00;80.80;;;;;;6245441;23;20027;-79
2021/06/28 04:20:22;;;;;;;6.00;3.63;;;17.00;80.80;;;;;;6246361;22;20016;-79
2021/06/28 04:22:50;;;;;;;9.02;4.53;;;16.90;80.90;;;;;;6244973;23;20020;-79
2021/06/28 04:25:21;;;;;;;6.50;4.10;;;16.90;81.00;;;;;;6244979;23;20023;-79
2021/06/28 04:27:48;;;;;;;5.72;4.15;;;16.90;81.00;;;;;;6246493;23;20360;-81
2021/06/28 04:30:17;;;;;;;10.18;4.82;;;17.00;81.10;;;;;;6246556;22;20021;-81
2021/06/28 04:32:46;;;;;;;8.52;4.72;;;16.90;81.10;;;;;;6244806;23;20022;-79
2021/06/28 04:35:17;;;;;;;8.77;4.95;;;17.00;81.10;;;;;;6246207;22;20367;-78
2021/06/28 04:37:45;;;;;;;8.75;4.20;;;17.00;81.20;;;;;;6244766;23;20483;-78
2021/06/28 04:40:15;;;;;;;12.45;5.53;;;17.00;81.20;;;;;;6246181;22;20094;-80
2021/06/28 04:42:43;;;;;;;10.93;4.95;;;17.00;81.30;;;;;;6245081;23;20349;-77
2021/06/28 04:45:11;;;;;;;10.23;5.05;;;17.00;81.20;;;;;;6244674;23;20024;-80
2021/06/28 04:47:38;;;;;;;11.23;5.53;;;17.00;81.30;;;;;;6245987;22;20020;-80
2021/06/28 04:50:07;;;;;;;9.98;5.35;;;17.00;81.30;;;;;;6246440;23;20016;-81
2021/06/28 04:52:36;;;;;;;9.15;5.20;;;17.00;81.30;;;;;;6246452;22;20020;-81
2021/06/28 04:55:10;;;;;;;12.40;5.90;;;17.00;81.40;;;;;;6244409;23;20468;-79
2021/06/28 04:57:37;;;;;;;11.45;4.65;;;17.00;81.40;;;;;;6246052;22;20031;-80
2021/06/28 05:00:07;;;;;;;10.88;6.40;;;17.00;81.50;;;;;;6245016;23;20371;-80
2021/06/28 05:02:35;;;;;;;7.35;4.90;;;17.00;81.50;;;;;;6244890;23;20052;-79
2021/06/28 05:05:04;;;;;;;15.48;5.85;;;17.00;81.60;;;;;;6244438;23;20020;-81
2021/06/28 05:07:31;;;;;;;8.85;5.38;;;17.00;81.60;;;;;;6244874;23;20024;-82
2021/06/28 05:09:58;;;;;;;10.30;5.72;;;17.00;81.60;;;;;;6242222;23;20360;-81
2021/06/28 05:12:25;;;;;;;11.95;6.68;;;17.00;81.60;;;;;;6243214;23;20042;-78
2021/06/28 05:14:52;;;;;;;9.93;5.97;;;17.10;81.70;;;;;;6245323;22;20023;-78
2021/06/28 05:17:19;;;;;;;11.20;5.93;;;17.10;81.70;;;;;;6243673;23;20027;-81
2021/06/28 05:19:46;;;;;;;10.48;6.53;;;17.10;81.80;;;;;;6243163;23;20016;-78
2021/06/28 05:22:13;;;;;;;10.73;5.85;;;17.10;81.80;;;;;;6243125;23;20020;-80
2021/06/28 05:24:40;;;;;;;11.82;6.35;;;17.10;81.90;;;;;;6242708;23;20020;-81
2021/06/28 05:27:08;;;;;;;11.70;6.10;;;17.10;81.90;;;;;;6244837;23;20020;-78
2021/06/28 05:29:35;;;;;;;7.28;4.45;;;17.20;82.00;;;;;;6243344;23;20031;-80
2021/06/28 05:32:02;;;;;;;14.88;5.75;;;17.20;82.00;;;;;;6244852;22;20020;-79
2021/06/28 05:34:29;;;;;;;8.63;5.88;;;17.20;82.00;;;;;;6242868;23;20388;-80
2021/06/28 05:36:56;;;;;;;10.48;5.78;;;17.20;82.00;;;;;;6243257;23;20364;-77
2021/06/28 05:39:23;;;;;;;9.70;5.97;;;17.20;82.10;;;;;;6244462;22;20038;-79
2021/06/28 05:41:50;;;;;;;7.28;6.18;;;17.30;82.10;;;;;;6243228;23;20127;-79
2021/06/28 05:44:17;;;;;;;12.68;6.45;;;17.30;82.20;;;;;;6244841;22;20023;-80
2021/06/28 05:46:44;;;;;;;11.52;6.22;;;17.30;82.30;;;;;;6243051;23;20023;-80
2021/06/28 05:49:11;;;;;;;15.18;6.30;;;17.30;82.30;;;;;;6244336;22;20013;-80
2021/06/28 05:51:38;;;;;;;11.68;8.05;;;17.30;82.40;;;;;;6244576;23;20022;-80
2021/06/28 05:54:06;;;;;;;14.73;6.43;;;17.40;82.40;;;;;;6243060;23;20016;-81
2021/06/28 05:56:33;;;;;;;10.32;8.10;;;17.40;82.60;;;;;;6242627;22;20020;-80
2021/06/28 05:59:00;;;;;;;9.98;6.80;;;17.40;82.60;;;;;;6243102;23;20684;-81
2021/06/28 06:01:27;;;;;;;12.55;8.15;;;17.40;82.70;;;;;;6244370;22;20016;-79
2021/06/28 06:03:54;;;;;;;15.38;7.63;;;17.40;82.80;;;;;;6244516;22;20016;-79
2021/06/28 06:06:21;;;;;;;15.63;7.43;;;17.40;82.80;;;;;;6244288;22;20019;-79
2021/06/28 06:08:48;;;;;;;13.55;8.90;;;17.50;82.80;;;;;;6242878;23;20016;-80
2021/06/28 06:11:16;;;;;;;22.90;9.35;;;17.50;82.90;;;;;;6243873;22;20103;-80
2021/06/28 06:13:45;;;;;;;13.52;8.73;;;17.50;83.00;;;;;;6242555;23;20016;-78
2021/06/28 06:16:13;;;;;;;15.55;8.93;;;17.50;83.00;;;;;;6244074;22;20370;-83
2021/06/28 06:18:40;;;;;;;14.43;8.75;;;17.60;83.10;;;;;;6244153;23;20023;-82
2021/06/28 06:21:07;;;;;;;12.25;8.50;;;17.60;83.20;;;;;;6243671;23;20360;-80
2021/06/28 06:23:34;;;;;;;8.60;7.20;;;17.60;83.30;;;;;;6243876;23;20017;-83
2021/06/28 06:26:01;;;;;;;10.60;7.03;;;17.70;83.30;;;;;;6243825;23;20020;-79
2021/06/28 06:28:28;;;;;;;15.60;10.15;;;17.70;83.30;;;;;;6244312;23;20023;-81
2021/06/28 06:30:55;;;;;;;26.02;9.13;;;17.80;83.40;;;;;;6245589;22;20027;-81
2021/06/28 06:33:22;;;;;;;15.23;10.13;;;17.80;83.50;;;;;;6243803;23;20368;-80
2021/06/28 06:35:50;;;;;;;14.32;9.90;;;17.80;83.60;;;;;;6243947;23;20012;-80
2021/06/28 06:38:17;;;;;;;13.68;9.80;;;17.90;83.80;;;;;;6243619;23;20021;-79
2021/06/28 06:40:48;;;;;;;20.67;12.43;;;17.90;84.00;;;;;;6243742;23;20039;-79
2021/06/28 06:43:16;;;;;;;20.45;12.60;;;18.00;84.10;;;;;;6244143;23;20479;-79
2021/06/28 06:45:43;;;;;;;21.83;13.90;;;18.00;84.20;;;;;;6244393;23;20020;-79
2021/06/28 06:48:10;;;;;;;17.85;12.90;;;18.10;84.30;;;;;;6245148;23;20017;-80
2021/06/28 06:50:39;;;;;;;19.30;13.80;;;18.10;84.40;;;;;;6245427;22;20016;-80
2021/06/28 06:53:07;;;;;;;22.55;15.20;;;18.20;84.50;;;;;;6244131;23;20039;-81
2021/06/28 06:55:34;;;;;;;18.17;14.90;;;18.20;84.50;;;;;;6243647;22;20344;-82
2021/06/28 06:58:04;;;;;;;22.52;14.90;;;18.30;84.60;;;;;;6243760;23;20075;-79
2021/06/28 07:00:31;;;;;;;17.80;14.32;;;18.30;84.60;;;;;;6243693;23;20020;-82
2021/06/28 07:02:59;;;;;;;17.92;13.85;;;18.30;84.50;;;;;;6243734;23;20502;-78
2021/06/28 07:05:25;;;;;;;16.98;14.38;;;18.40;84.60;;;;;;6244965;22;20024;-81
2021/06/28 07:07:52;;;;;;;18.20;13.98;;;18.40;84.60;;;;;;6244022;23;20047;-79
2021/06/28 07:10:20;;;;;;;19.33;14.70;;;18.40;84.60;;;;;;6243502;23;20102;-82
2021/06/28 07:12:47;;;;;;;19.40;14.13;;;18.40;84.60;;;;;;6243923;23;20016;-79
2021/06/28 07:15:16;;;;;;;23.10;14.55;;;18.40;84.60;;;;;;6244104;23;20016;-82
2021/06/28 07:17:45;;;;;;;23.23;14.20;;;18.40;84.60;;;;;;6243691;23;20472;-82
2021/06/28 07:20:15;;;;;;;17.65;13.65;;;18.40;84.60;;;;;;6244855;22;20359;-79
2021/06/28 07:22:42;;;;;;;19.05;14.50;;;18.40;84.60;;;;;;6243577;23;20020;-79
2021/06/28 07:25:12;;;;;;;19.10;13.98;;;18.40;84.60;;;;;;6243547;23;20479;-79
2021/06/28 07:27:40;;;;;;;20.27;13.60;;;18.50;84.60;;;;;;6243511;23;20054;-84
2021/06/28 07:30:11;;;;;;;17.20;13.25;;;18.50;84.60;;;;;;6245450;23;20026;-82
2021/06/28 07:32:38;;;;;;;20.95;13.65;;;18.50;84.60;;;;;;6245445;23;20017;-79
2021/06/28 07:35:07;;;;;;;19.88;13.48;;;18.50;84.60;;;;;;6246846;22;20040;-80
2021/06/28 07:37:35;;;;;;;20.00;13.40;;;18.50;84.60;;;;;;6245364;22;20024;-79
2021/06/28 07:40:04;;;;;;;19.83;13.40;;;18.50;84.60;;;;;;6245654;23;20070;-81
2021/06/28 07:42:31;;;;;;;17.45;14.07;;;18.50;84.60;;;;;;6245562;23;20406;-81
2021/06/28 07:44:58;;;;;;;17.35;14.82;;;18.50;84.60;;;;;;6245262;23;20490;-80
2021/06/28 07:47:25;;;;;;;18.92;13.15;;;18.50;84.70;;;;;;6245238;22;20356;-81
2021/06/28 07:49:53;;;;;;;26.50;15.45;;;18.50;84.60;;;;;;6244917;23;20095;-83
2021/06/28 07:52:20;;;;;;;15.88;12.70;;;18.50;84.60;;;;;;6245187;23;20087;-81
2021/06/28 07:54:48;;;;;;;18.80;14.40;;;18.50;84.60;;;;;;6246887;22;20016;-82
2021/06/28 07:57:15;;;;;;;16.35;12.75;;;18.50;84.60;;;;;;6245166;22;20364;-81
2021/06/28 07:59:42;;;;;;;17.25;14.20;;;18.60;84.60;;;;;;6246830;22;20464;-80
2021/06/28 08:02:09;;;;;;;15.73;13.40;;;18.60;84.70;;;;;;6245200;22;20490;-80
2021/06/28 08:04:37;;;;;;;19.52;13.82;;;18.60;84.70;;;;;;6244831;23;20020;-81
2021/06/28 08:07:04;;;;;;;15.60;11.98;;;18.60;84.70;;;;;;6244904;23;20467;-82
2021/06/28 08:09:31;;;;;;;17.73;12.63;;;18.70;84.70;;;;;;6245163;23;20024;-83
2021/06/28 08:11:58;;;;;;;16.45;12.85;;;18.70;84.70;;;;;;6245220;23;20016;-82
2021/06/28 08:14:26;;;;;;;17.35;12.82;;;18.70;84.70;;;;;;6245491;23;20020;-79
2021/06/28 08:16:54;;;;;;;16.00;12.82;;;18.70;84.70;;;;;;6244881;23;20020;-79
2021/06/28 08:19:21;;;;;;;16.92;12.70;;;18.80;84.80;;;;;;6244909;23;20554;-79
2021/06/28 08:21:48;;;;;;;15.20;12.23;;;18.80;84.80;;;;;;6244997;23;20407;-84
2021/06/28 08:24:16;;;;;;;16.20;12.45;;;18.80;84.80;;;;;;6244840;23;20020;-80
2021/06/28 08:26:45;;;;;;;15.77;12.57;;;18.80;84.80;;;;;;6244871;23;20020;-79
2021/06/28 08:29:12;;;;;;;14.23;11.13;;;18.80;84.70;;;;;;6244802;23;20026;-80
2021/06/28 08:31:40;;;;;;;17.08;12.75;;;18.90;84.70;;;;;;6242784;23;20031;-80
2021/06/28 08:34:14;;;;;;;16.70;13.32;;;18.90;84.70;;;;;;6242452;23;20043;-85
2021/06/28 08:36:44;;;;;;;16.05;12.45;;;18.90;84.70;;;;;;6245015;22;20105;-78
2021/06/28 08:39:14;;;;;;;16.00;11.27;;;18.90;84.70;;;;;;6243984;22;20088;-82
2021/06/28 08:41:44;;;;;;;15.90;12.70;;;18.90;84.70;;;;;;6244575;23;20016;-79
2021/06/28 08:44:13;;;;;;;14.30;11.15;;;18.90;84.80;;;;;;6245124;23;20023;-81
2021/06/28 08:46:44;;;;;;;14.60;11.32;;;19.00;84.90;;;;;;6243291;23;20467;-82
2021/06/28 08:49:13;;;;;;;15.75;11.80;;;19.00;84.90;;;;;;6244750;22;20545;-82
2021/06/28 08:51:41;;;;;;;16.52;11.10;;;19.10;84.90;;;;;;6243778;22;20345;-79
2021/06/28 08:54:10;;;;;;;16.25;10.05;;;19.10;84.80;;;;;;6244877;22;20016;-83
2021/06/28 08:56:39;;;;;;;12.32;9.88;;;19.10;84.90;;;;;;6243582;22;20017;-80
2021/06/28 08:59:11;;;;;;;13.60;10.75;;;19.20;84.90;;;;;;6243579;23;20020;-79
2021/06/28 09:01:39;;;;;;;13.13;10.38;;;19.30;84.90;;;;;;6242704;23;20023;-79
2021/06/28 09:04:08;;;;;;;18.23;9.73;;;19.30;84.80;;;;;;6243510;23;20024;-82
2021/06/28 09:06:37;;;;;;;13.68;10.70;;;19.40;84.80;;;;;;6244833;22;20090;-81
2021/06/28 09:09:12;;;;;;;10.82;9.00;;;19.40;84.80;;;;;;6244495;23;20020;-84
2021/06/28 09:11:57;;;;;;;12.57;9.93;;;19.40;84.70;;;;;;6245039;22;20016;-82
2021/06/28 09:14:26;;;;;;;11.93;9.80;;;19.40;84.60;;;;;;6243078;23;20020;-81
2021/06/28 09:16:53;;;;;;;13.35;9.70;;;19.40;84.50;;;;;;6244194;22;20035;-80
2021/06/28 09:19:22;;;;;;;11.23;9.90;;;19.50;84.50;;;;;;6243492;23;20498;-80
2021/06/28 09:21:57;;;;;;;13.00;9.65;;;19.50;84.50;;;;;;6244644;22;20082;-82
2021/06/28 09:24:32;;;;;;;10.45;8.77;;;19.50;84.40;;;;;;6243153;23;20012;-80
2021/06/28 09:27:11;;;;;;;10.40;9.02;;;19.60;84.30;;;;;;6243106;23;20335;-79
2021/06/28 09:29:40;;;;;;;11.90;9.23;;;19.60;84.20;;;;;;6243086;23;20464;-79
2021/06/28 09:32:16;;;;;;;10.77;8.07;;;19.60;84.10;;;;;;6242934;23;20020;-78
2021/06/28 09:34:45;;;;;;;10.30;8.70;;;19.60;84.00;;;;;;6243138;23;20047;-81
2021/06/28 09:37:15;;;;;;;11.25;8.68;;;19.70;84.00;;;;;;6243425;23;20110;-80
2021/06/28 09:39:45;;;;;;;11.82;9.88;;;19.70;84.00;;;;;;6243152;23;20016;-82
2021/06/28 09:42:24;;;;;;;11.45;9.05;;;19.70;84.00;;;;;;6242884;23;20023;-78
2021/06/28 09:45:14;;;;;;;11.75;8.43;;;19.80;84.10;;;;;;6243162;23;20095;-79
2021/06/28 09:47:41;;;;;;;9.93;8.32;;;19.80;84.10;;;;;;6242643;23;20020;-83
2021/06/28 09:50:11;;;;;;;12.63;8.85;;;19.80;83.90;;;;;;6242871;23;20095;-80
2021/06/28 09:52:40;;;;;;;10.38;7.82;;;19.80;83.80;;;;;;6242709;23;20016;-82
2021/06/28 09:55:33;;;;;;;12.13;7.68;;;19.90;83.80;;;;;;6242918;22;20022;-83
2021/06/28 09:58:06;;;;;;;10.85;7.53;;;19.90;83.80;;;;;;6245140;22;20046;-80
2021/06/28 10:00:38;;;;;;;10.20;7.77;;;19.90;83.70;;;;;;6242961;23;20107;-81
2021/06/28 10:03:27;;;;;;;9.75;6.68;;;19.90;83.80;;;;;;6242398;23;20024;-80
2021/06/28 10:06:15;;;;;;;8.10;6.05;;;20.00;83.90;;;;;;6243109;23;20020;-81
2021/06/28 10:08:46;;;;;;;7.43;5.35;;;20.10;83.90;;;;;;6244105;22;20027;-81
2021/06/28 10:11:18;;;;;;;7.63;4.82;;;20.20;83.80;;;;;;6244110;23;20368;-81
2021/06/28 10:13:59;;;;;;;7.32;4.32;;;20.40;83.70;;;;;;6242400;23;20020;-81
2021/06/28 10:16:32;;;;;;;9.82;4.15;;;20.40;83.50;;;;;;6242499;23;20480;-84
2021/06/28 10:19:01;;;;;;;5.60;4.20;;;20.40;83.20;;;;;;6244581;22;20027;-83
2021/06/28 10:21:29;;;;;;;9.55;4.32;;;20.50;83.00;;;;;;6242845;23;20360;-84
2021/06/28 10:23:57;;;;;;;5.97;3.67;;;20.50;82.90;;;;;;6243848;22;20016;-84
2021/06/28 10:26:24;;;;;;;5.95;4.07;;;20.60;82.80;;;;;;6242508;23;20596;-83
2021/06/28 10:28:53;;;;;;;5.82;3.58;;;20.70;82.60;;;;;;6242495;23;20016;-86
2021/06/28 10:31:20;;;;;;;5.88;4.00;;;20.70;82.50;;;;;;6242388;23;20024;-82
2021/06/28 10:33:56;;;;;;;5.38;3.50;;;20.80;82.30;;;;;;6244097;22;20070;-82
2021/06/28 10:36:32;;;;;;;6.78;3.25;;;20.90;82.10;;;;;;6243215;23;20035;-83
2021/06/28 10:38:59;;;;;;;8.45;3.67;;;20.90;81.90;;;;;;6242495;23;20020;-84
2021/06/28 10:41:35;;;;;;;6.53;3.45;;;21.00;81.60;;;;;;6243291;23;20042;-82
2021/06/28 10:44:02;;;;;;;7.00;3.40;;;21.00;81.50;;;;;;6244296;22;20031;-80
2021/06/28 10:46:33;;;;;;;6.47;3.20;;;21.10;81.30;;;;;;6241929;23;20023;-82
2021/06/28 10:49:00;;;;;;;4.88;3.33;;;21.20;81.10;;;;;;6242716;23;20201;-82
2021/06/28 10:51:57;;;;;;;5.63;3.28;;;21.20;81.00;;;;;;6242756;23;20024;-80
2021/06/28 10:54:35;;;;;;;5.43;2.90;;;21.30;81.00;;;;;;6229262;23;20026;-80
2021/06/28 10:57:04;;;;;;;5.00;2.97;;;21.40;80.80;;;;;;6242246;22;20012;-83
2021/06/28 10:59:39;;;;;;;5.60;2.92;;;21.40;80.40;;;;;;6242601;23;20020;-82
2021/06/28 11:02:09;;;;;;;8.82;3.28;;;21.50;79.60;;;;;;6242585;23;20051;-81
2021/06/28 11:04:54;;;;;;;4.68;2.80;;;21.50;79.50;;;;;;6245086;23;20016;-79
2021/06/28 11:07:21;;;;;;;6.07;2.78;;;21.50;79.40;;;;;;6244891;23;20016;-82
2021/06/28 11:09:50;;;;;;;5.43;2.70;;;21.60;79.30;;;;;;6245836;23;20091;-81
2021/06/28 11:12:28;;;;;;;3.92;2.58;;;21.70;79.20;;;;;;6244034;23;20020;-81
2021/06/28 11:15:08;;;;;;;3.90;2.53;;;21.70;79.10;;;;;;6244419;23;20024;-82
2021/06/28 11:17:47;;;;;;;4.47;2.67;;;21.70;78.90;;;;;;6244525;23;20023;-83
2021/06/28 11:20:29;;;;;;;5.43;2.50;;;21.80;78.70;;;;;;6244287;23;20030;-82
2021/06/28 11:23:06;;;;;;;5.45;2.60;;;21.80;78.00;;;;;;6243916;23;20360;-83
2021/06/28 11:25:49;;;;;;;9.88;3.00;;;21.80;78.10;;;;;;6244105;23;20091;-83
2021/06/28 11:28:45;;;;;;;4.78;2.60;;;21.90;78.20;;;;;;6244461;23;20018;-87
2021/06/28 11:43:12;;;;;;;6.10;2.90;;;21.90;77.60;;;;;;6093998;23;20025;-88
2021/06/28 11:45:55;;;;;;;5.57;2.67;;;22.00;77.60;;;;;;6073648;23;20082;-88
2021/06/28 11:48:43;;;;;;;8.20;2.33;;;22.10;77.70;;;;;;6070701;23;20023;-87
2021/06/28 11:51:14;;;;;;;4.22;2.10;;;22.20;77.60;;;;;;6071235;23;20018;-88
2021/06/28 11:54:23;;;;;;;;;;;;;;;;;;;;;
2021/06/28 11:57:07;;;;;;;3.88;2.17;;;22.30;76.20;;;;;;6070420;23;20036;-86
2021/06/28 11:59:43;;;;;;;7.28;2.10;;;22.40;76.70;;;;;;6070951;23;20038;-89
2021/06/28 12:02:15;;;;;;;8.05;2.35;;;22.60;77.00;;;;;;6094165;23;20022;-87
2021/06/28 12:04:58;;;;;;;4.90;2.30;;;22.80;77.00;;;;;;6070977;23;20032;-87
2021/06/28 12:07:26;;;;;;;4.30;2.28;;;23.00;76.80;;;;;;6075219;23;20045;-88
2021/06/28 12:09:58;;;;;;;4.63;2.00;;;23.20;76.40;;;;;;6099114;23;20021;-90
2021/06/28 12:12:25;;;;;;;4.60;2.03;;;23.40;75.60;;;;;;6123582;23;20074;-89
2021/06/28 12:14:58;;;;;;;3.38;1.63;;;23.60;75.20;;;;;;6123606;23;20026;-84
2021/06/28 12:17:37;;;;;;;6.72;1.85;;;23.70;75.00;;;;;;6129037;23;20044;-89
2021/06/28 12:20:15;;;;;;;4.57;1.92;;;23.90;74.00;;;;;;6228896;23;20020;-87
2021/06/28 12:23:22;;;;;;;5.93;1.70;;;24.00;73.70;;;;;;6133256;23;20080;-88
2021/06/28 12:27:18;;;;;;;3.13;1.48;;;24.20;73.50;;;;;;6133187;23;20025;-90
2021/06/28 12:30:27;;;;;;;5.40;1.60;;;24.40;72.40;;;;;;6151035;23;20035;-89
2021/06/28 12:33:33;;;;;;;3.08;1.50;;;24.50;70.80;;;;;;6125684;23;20039;-88
2021/06/28 12:36:51;;;;;;;3.37;1.33;;;24.60;70.70;;;;;;6128847;23;20080;-90
2021/06/28 12:39:26;;;;;;;3.03;1.50;;;24.70;70.20;;;;;;6014095;23;20090;-88
2021/06/28 12:42:36;;;;;;;;;;;24.70;69.00;;;;;;6117640;23;20021;-90
2021/06/28 12:45:14;;;;;;;4.35;1.23;;;24.60;69.40;;;;;;6064571;23;19961;-85
2021/06/28 12:48:58;;;;;;;;;;;;;;;;;;;;;
2021/06/28 12:52:45;;;;;;;;;;;;;;;;;;;;;
2021/06/28 13:00:15;;;;;;;3.17;1.50;;;25.10;68.90;;;;;;6026391;23;20142;-86
2021/06/28 13:07:19;;;;;;;;;;;;;;;;;;;;;
2021/06/28 13:10:33;;;;;;;2.30;1.20;;;25.30;68.40;;;;;;6021758;23;20473;-87
2021/06/28 13:13:25;;;;;;;4.75;1.35;;;25.40;68.10;;;;;;5978798;24;20507;-88
2021/06/28 13:19:44;;;;;;;4.35;1.30;;;25.40;68.10;;;;;;6035491;23;20460;-87
2021/06/28 13:22:25;;;;;;;3.67;1.25;;;25.40;67.90;;;;;;6014677;23;20038;-88
2021/06/28 13:25:14;;;;;;;3.97;1.20;;;25.40;67.80;;;;;;6036294;23;20539;-89
2021/06/28 13:28:23;;;;;;;2.40;1.13;;;25.40;67.60;;;;;;6017843;23;20159;-87
2021/06/28 13:34:39;;;;;;;4.75;1.40;;;25.30;67.00;;;;;;6018539;23;20034;-90
2021/06/28 13:37:21;;;;;;;3.38;1.10;;;25.20;66.70;;;;;;6093906;23;20054;-89